createdAt,value
2022-12-01T00:00:38.245Z,97.95
2022-12-01T00:01:39.637Z,98.13
2022-12-01T00:02:41.116Z,98.25
2022-12-01T00:03:42.509Z,98.31
2022-12-01T00:04:43.828Z,97.99
2022-12-01T00:05:45.162Z,97.36
2022-12-01T00:06:46.497Z,98.17
2022-12-01T00:07:48.338Z,98.38
2022-12-01T00:08:51.036Z,98.17
2022-12-01T00:09:52.401Z,98.21
2022-12-01T00:10:53.835Z,97.52
2022-12-01T00:11:55.242Z,97.23
2022-12-01T00:12:57.822Z,97.04
2022-12-01T00:13:59.191Z,97.74
2022-12-01T00:15:00.514Z,97.25
2022-12-01T00:16:17.363Z,96.59
2022-12-01T00:17:18.780Z,97.27
2022-12-01T00:18:20.108Z,97.60
2022-12-01T00:19:24.432Z,97.28
2022-12-01T00:20:25.854Z,97.21
2022-12-01T00:21:27.521Z,98.24
2022-12-01T00:22:28.900Z,98.10
2022-12-01T00:23:30.231Z,97.71
2022-12-01T00:24:31.643Z,97.75
2022-12-01T00:25:33.007Z,97.85
2022-12-01T00:26:34.340Z,98.15
2022-12-01T00:27:35.686Z,98.99
2022-12-01T00:28:37.068Z,98.08
2022-12-01T00:29:38.472Z,97.59
2022-12-01T00:30:39.772Z,98.43
2022-12-01T00:31:41.199Z,98.17
2022-12-01T00:32:42.659Z,98.40
2022-12-01T00:33:44.007Z,98.69
2022-12-01T00:34:45.400Z,98.80
2022-12-01T00:35:46.755Z,98.50
2022-12-01T00:36:49.620Z,98.13
2022-12-01T00:37:50.987Z,97.91
2022-12-01T00:38:53.274Z,98.19
2022-12-01T00:39:54.590Z,98.28
2022-12-01T00:40:55.972Z,98.33
2022-12-01T00:41:57.286Z,98.29
2022-12-01T00:42:58.604Z,98.26
2022-12-01T00:43:59.947Z,97.96
2022-12-01T00:45:01.310Z,98.96
2022-12-01T00:46:02.761Z,98.50
2022-12-01T00:47:04.220Z,97.46
2022-12-01T00:48:05.574Z,98.17
2022-12-01T00:49:06.906Z,98.35
2022-12-01T00:50:08.367Z,98.31
2022-12-01T00:51:09.731Z,98.39
2022-12-01T00:52:11.826Z,98.05
2022-12-01T00:53:13.185Z,98.83
2022-12-01T00:54:14.808Z,98.22
2022-12-01T00:55:16.230Z,98.57
2022-12-01T00:56:17.607Z,98.49
2022-12-01T00:57:18.934Z,98.73
2022-12-01T00:58:20.644Z,98.77
2022-12-01T00:59:22.019Z,98.70
2022-12-01T01:00:23.394Z,98.28
2022-12-01T01:01:24.749Z,98.83
2022-12-01T01:02:26.189Z,98.96
2022-12-01T01:03:27.916Z,99.63
2022-12-01T01:04:29.822Z,98.64
2022-12-01T01:05:31.168Z,99.08
2022-12-01T01:06:32.518Z,98.97
2022-12-01T01:07:33.963Z,98.22
2022-12-01T01:08:35.658Z,97.70
2022-12-01T01:09:36.974Z,97.41
2022-12-01T01:10:38.908Z,97.62
2022-12-01T01:11:40.348Z,98.56
2022-12-01T01:12:41.728Z,98.46
2022-12-01T01:13:43.026Z,98.23
2022-12-01T01:14:44.426Z,97.36
2022-12-01T01:15:45.759Z,97.48
2022-12-01T01:16:47.228Z,97.51
2022-12-01T01:17:48.591Z,97.75
2022-12-01T01:18:49.966Z,97.17
2022-12-01T01:19:52.495Z,98.15
2022-12-01T01:20:57.614Z,98.39
2022-12-01T01:21:58.949Z,97.14
2022-12-01T01:23:00.269Z,97.26
2022-12-01T01:24:01.646Z,97.04
2022-12-01T01:25:03.038Z,97.72
2022-12-01T01:26:34.903Z,97.96
2022-12-01T01:27:36.303Z,96.55
2022-12-01T01:28:37.695Z,96.22
2022-12-01T01:29:39.039Z,96.63
2022-12-01T01:30:40.432Z,97.00
2022-12-01T01:31:41.801Z,96.54
2022-12-01T01:32:43.132Z,96.47
2022-12-01T01:33:44.520Z,96.53
2022-12-01T01:34:45.849Z,96.99
2022-12-01T01:35:47.226Z,96.85
2022-12-01T01:36:48.600Z,96.42
2022-12-01T01:37:52.871Z,96.97
2022-12-01T01:38:54.791Z,96.53
2022-12-01T01:39:56.106Z,96.26
2022-12-01T01:40:57.475Z,96.39
2022-12-01T01:41:58.823Z,96.77
2022-12-01T01:43:00.181Z,96.25
2022-12-01T01:44:02.472Z,96.69
2022-12-01T01:45:03.963Z,95.63
2022-12-01T01:46:05.706Z,95.85
2022-12-01T01:47:07.119Z,95.83
2022-12-01T01:48:09.823Z,96.47
2022-12-01T01:49:12.886Z,95.38
2022-12-01T01:50:15.934Z,95.52
2022-12-01T01:51:17.841Z,96.05
2022-12-01T01:52:19.241Z,95.63
2022-12-01T01:53:21.064Z,95.92
2022-12-01T01:54:26.331Z,95.87
2022-12-01T01:55:29.209Z,96.14
2022-12-01T01:56:30.711Z,96.29
2022-12-01T01:57:32.756Z,94.91
2022-12-01T01:58:34.556Z,94.71
2022-12-01T01:59:43.224Z,94.82
2022-12-01T02:00:45.017Z,95.29
2022-12-01T02:01:48.660Z,94.83
2022-12-01T02:02:50.344Z,94.59
2022-12-01T02:03:53.314Z,95.27
2022-12-01T02:05:00.498Z,94.40
2022-12-01T02:06:04.608Z,94.58
2022-12-01T02:07:07.647Z,94.70
2022-12-01T02:08:09.047Z,94.75
2022-12-01T02:09:11.918Z,95.02
2022-12-01T02:10:14.223Z,95.81
2022-12-01T02:11:30.955Z,95.13
2022-12-01T02:12:47.494Z,94.84
2022-12-01T02:14:07.705Z,95.30
2022-12-01T02:15:15.356Z,94.11
2022-12-01T02:16:19.829Z,94.74
2022-12-01T02:17:41.901Z,95.28
2022-12-01T02:18:49.590Z,94.44
2022-12-01T02:20:02.782Z,94.37
2022-12-01T02:21:04.086Z,95.11
2022-12-01T02:22:22.057Z,95.56
2022-12-01T02:23:26.209Z,94.48
2022-12-01T02:24:39.854Z,92.79
2022-12-01T02:25:53.136Z,93.58
2022-12-01T02:27:03.600Z,93.91
2022-12-01T02:28:23.018Z,93.50
2022-12-01T02:29:42.960Z,93.86
2022-12-01T02:30:48.545Z,93.07
2022-12-01T02:31:57.233Z,93.95
2022-12-01T02:33:06.854Z,93.37
2022-12-01T02:34:11.082Z,92.38
2022-12-01T02:35:20.774Z,91.49
2022-12-01T02:36:34.378Z,91.88
2022-12-01T02:37:45.794Z,91.00
2022-12-01T02:39:02.616Z,91.43
2022-12-01T02:40:26.429Z,90.61
2022-12-01T02:41:31.690Z,91.19
2022-12-01T02:42:52.526Z,91.81
2022-12-01T02:43:53.853Z,91.21
2022-12-01T02:44:56.396Z,91.87
2022-12-01T02:45:57.803Z,92.34
2022-12-01T02:46:59.204Z,92.50
2022-12-01T02:48:01.875Z,92.98
2022-12-01T02:49:07.597Z,91.13
2022-12-01T02:50:10.203Z,90.78
2022-12-01T02:51:18.014Z,89.86
2022-12-01T02:52:21.830Z,90.52
2022-12-01T02:53:23.180Z,91.07
2022-12-01T02:54:25.599Z,90.98
2022-12-01T02:55:26.995Z,91.48
2022-12-01T02:56:28.799Z,91.78
2022-12-01T02:57:30.387Z,90.22
2022-12-01T02:58:31.741Z,90.63
2022-12-01T02:59:33.121Z,91.11
2022-12-01T03:00:34.511Z,91.84
2022-12-01T03:01:42.025Z,91.03
2022-12-01T03:02:55.704Z,91.36
2022-12-01T03:04:02.509Z,92.45
2022-12-01T03:05:06.795Z,92.41
2022-12-01T03:06:14.321Z,92.45
2022-12-01T03:07:34.670Z,92.73
2022-12-01T03:08:47.098Z,93.00
2022-12-01T03:09:48.729Z,92.71
2022-12-01T03:10:54.365Z,92.54
2022-12-01T03:12:15.987Z,93.02
2022-12-01T03:13:32.735Z,92.00
2022-12-01T03:14:34.052Z,92.41
2022-12-01T03:15:55.707Z,92.44
2022-12-01T03:16:59.395Z,91.83
2022-12-01T03:18:10.243Z,92.13
2022-12-01T03:19:19.837Z,93.23
2022-12-01T03:20:30.081Z,93.74
2022-12-01T03:21:33.528Z,93.79
2022-12-01T03:22:39.049Z,93.45
2022-12-01T03:23:42.548Z,93.87
2022-12-01T03:24:46.200Z,94.25
2022-12-01T03:25:49.014Z,93.83
2022-12-01T03:26:53.867Z,93.81
2022-12-01T03:28:20.200Z,93.62
2022-12-01T03:29:21.766Z,94.50
2022-12-01T03:30:24.132Z,94.59
2022-12-01T03:31:28.330Z,93.64
2022-12-01T03:32:34.002Z,93.86
2022-12-01T03:33:43.180Z,93.92
2022-12-01T03:34:50.094Z,94.49
2022-12-01T03:35:53.953Z,94.09
2022-12-01T03:37:07.598Z,94.27
2022-12-01T03:38:14.421Z,94.03
2022-12-01T03:39:19.183Z,93.25
2022-12-01T03:40:22.255Z,93.14
2022-12-01T03:41:26.072Z,94.15
2022-12-01T03:42:29.887Z,93.98
2022-12-01T03:43:36.618Z,94.50
2022-12-01T03:44:44.674Z,94.54
2022-12-01T03:45:59.236Z,94.68
2022-12-01T03:47:05.105Z,94.96
2022-12-01T03:48:07.075Z,94.56
2022-12-01T03:49:08.942Z,94.46
2022-12-01T03:50:11.394Z,94.25
2022-12-01T03:51:33.519Z,94.45
2022-12-01T03:52:40.546Z,94.30
2022-12-01T03:53:41.826Z,93.78
2022-12-01T03:55:03.471Z,93.83
2022-12-01T03:56:06.400Z,94.16
2022-12-01T03:57:10.482Z,93.96
2022-12-01T03:58:18.507Z,94.36
2022-12-01T03:59:21.311Z,93.33
2022-12-01T04:00:23.015Z,93.47
2022-12-01T04:01:24.478Z,93.06
2022-12-01T04:02:27.289Z,93.69
2022-12-01T04:03:28.661Z,94.04
2022-12-01T04:04:30.047Z,94.21
2022-12-01T04:05:32.281Z,93.61
2022-12-01T04:06:33.956Z,94.38
2022-12-01T04:07:35.937Z,94.76
2022-12-01T04:08:37.507Z,95.31
2022-12-01T04:09:39.691Z,95.07
2022-12-01T04:10:41.018Z,96.07
2022-12-01T04:11:42.797Z,95.12
2022-12-01T04:12:44.242Z,96.30
2022-12-01T04:13:45.547Z,95.62
2022-12-01T04:14:46.885Z,95.33
2022-12-01T04:15:57.051Z,95.04
2022-12-01T04:16:58.382Z,95.45
2022-12-01T04:17:59.770Z,95.74
2022-12-01T04:19:01.234Z,96.91
2022-12-01T04:20:03.275Z,96.25
2022-12-01T04:21:04.732Z,96.38
2022-12-01T04:22:06.059Z,96.82
2022-12-01T04:23:07.404Z,97.27
2022-12-01T04:24:09.018Z,96.77
2022-12-01T04:25:10.675Z,96.73
2022-12-01T04:26:15.707Z,97.43
2022-12-01T04:27:17.379Z,97.88
2022-12-01T04:28:18.706Z,98.19
2022-12-01T04:29:20.099Z,98.05
2022-12-01T04:30:21.391Z,97.85
2022-12-01T04:31:22.789Z,97.97
2022-12-01T04:32:24.207Z,97.55
2022-12-01T04:33:25.557Z,97.53
2022-12-01T04:34:26.985Z,97.20
2022-12-01T04:35:28.341Z,96.77
2022-12-01T04:36:30.854Z,97.08
2022-12-01T04:37:32.166Z,96.82
2022-12-01T04:38:33.498Z,97.33
2022-12-01T04:39:34.870Z,97.53
2022-12-01T04:40:37.849Z,98.02
2022-12-01T04:41:39.252Z,97.90
2022-12-01T04:42:40.621Z,97.82
2022-12-01T04:43:41.978Z,97.30
2022-12-01T04:44:43.367Z,97.28
2022-12-01T04:45:44.703Z,98.00
2022-12-01T04:46:46.032Z,98.73
2022-12-01T04:47:47.383Z,98.94
2022-12-01T04:48:49.088Z,98.31
2022-12-01T04:49:50.631Z,99.07
2022-12-01T04:50:52.112Z,98.88
2022-12-01T04:51:53.438Z,98.69
2022-12-01T04:52:54.812Z,98.81
2022-12-01T04:53:56.349Z,98.78
2022-12-01T04:54:57.653Z,98.69
2022-12-01T04:55:59.779Z,98.20
2022-12-01T04:57:01.143Z,98.14
2022-12-01T04:58:02.473Z,98.54
2022-12-01T04:59:03.796Z,98.13
2022-12-01T05:00:05.544Z,98.61
2022-12-01T05:01:09.035Z,96.61
2022-12-01T05:02:10.602Z,96.69
2022-12-01T05:03:15.045Z,96.61
2022-12-01T05:04:16.762Z,96.74
2022-12-01T05:05:18.135Z,96.74
2022-12-01T05:06:23.894Z,96.59
2022-12-01T05:07:25.283Z,96.70
2022-12-01T05:08:26.640Z,96.03
2022-12-01T05:09:28.025Z,96.20
2022-12-01T05:10:29.396Z,96.66
2022-12-01T05:11:31.889Z,96.92
2022-12-01T05:12:33.215Z,97.76
2022-12-01T05:13:36.716Z,97.88
2022-12-01T05:14:38.194Z,98.19
2022-12-01T05:15:39.595Z,97.11
2022-12-01T05:16:40.913Z,97.31
2022-12-01T05:17:42.326Z,97.20
2022-12-01T05:18:47.026Z,97.14
2022-12-01T05:19:48.782Z,96.67
2022-12-01T05:20:50.392Z,96.70
2022-12-01T05:21:52.165Z,96.02
2022-12-01T05:23:05.254Z,96.93
2022-12-01T05:24:08.067Z,95.89
2022-12-01T05:25:09.416Z,96.37
2022-12-01T05:26:11.234Z,96.75
2022-12-01T05:27:12.611Z,96.85
2022-12-01T05:28:13.964Z,96.40
2022-12-01T05:29:15.450Z,96.12
2022-12-01T05:30:16.856Z,96.12
2022-12-01T05:31:18.228Z,95.90
2022-12-01T05:32:19.661Z,95.70
2022-12-01T05:33:21.881Z,95.90
2022-12-01T05:34:23.261Z,96.43
2022-12-01T05:35:24.689Z,96.15
2022-12-01T05:36:26.041Z,96.49
2022-12-01T05:37:27.383Z,95.74
2022-12-01T05:38:31.569Z,95.28
2022-12-01T05:39:36.101Z,95.30
2022-12-01T05:40:38.149Z,95.37
2022-12-01T05:41:39.500Z,95.37
2022-12-01T05:42:40.808Z,95.23
2022-12-01T05:43:42.101Z,95.81
2022-12-01T05:44:43.456Z,95.83
2022-12-01T05:45:44.873Z,96.23
2022-12-01T05:46:46.281Z,95.79
2022-12-01T05:47:47.606Z,96.55
2022-12-01T05:48:49.035Z,96.22
2022-12-01T05:49:50.995Z,96.58
2022-12-01T05:50:52.484Z,96.94
2022-12-01T05:51:53.808Z,96.50
2022-12-01T05:52:55.228Z,96.51
2022-12-01T05:53:58.623Z,96.18
2022-12-01T05:54:59.942Z,95.72
2022-12-01T05:56:01.277Z,96.38
2022-12-01T05:57:02.684Z,96.52
2022-12-01T05:58:04.080Z,96.16
2022-12-01T05:59:05.394Z,95.63
2022-12-01T06:00:07.082Z,96.36
2022-12-01T06:01:12.702Z,96.26
2022-12-01T06:02:14.102Z,96.44
2022-12-01T06:03:15.466Z,96.87
2022-12-01T06:04:16.854Z,97.56
2022-12-01T06:05:18.255Z,97.63
2022-12-01T06:06:19.847Z,96.84
2022-12-01T06:07:21.470Z,97.17
2022-12-01T06:08:23.028Z,97.84
2022-12-01T06:09:24.447Z,96.57
2022-12-01T06:10:25.744Z,96.16
2022-12-01T06:11:27.059Z,96.01
2022-12-01T06:12:28.431Z,96.50
2022-12-01T06:13:29.834Z,95.22
2022-12-01T06:14:31.210Z,95.26
2022-12-01T06:15:32.525Z,95.98
2022-12-01T06:16:34.215Z,96.53
2022-12-01T06:17:39.917Z,96.01
2022-12-01T06:18:41.708Z,96.14
2022-12-01T06:19:43.002Z,96.43
2022-12-01T06:20:44.342Z,96.11
2022-12-01T06:21:45.715Z,95.33
2022-12-01T06:22:47.047Z,95.87
2022-12-01T06:23:48.408Z,96.11
2022-12-01T06:24:49.777Z,96.09
2022-12-01T06:25:51.133Z,96.87
2022-12-01T06:26:52.589Z,96.52
2022-12-01T06:27:57.619Z,95.53
2022-12-01T06:29:01.148Z,95.73
2022-12-01T06:30:03.479Z,96.82
2022-12-01T06:31:05.113Z,96.84
2022-12-01T06:32:06.565Z,96.51
2022-12-01T06:33:07.992Z,97.01
2022-12-01T06:34:09.915Z,96.85
2022-12-01T06:35:11.267Z,96.46
2022-12-01T06:36:12.611Z,97.14
2022-12-01T06:37:13.951Z,96.42
2022-12-01T06:38:15.274Z,96.37
2022-12-01T06:39:17.200Z,96.58
2022-12-01T06:40:18.636Z,96.72
2022-12-01T06:41:20.018Z,96.79
2022-12-01T06:42:21.384Z,97.39
2022-12-01T06:43:22.736Z,97.77
2022-12-01T06:44:24.064Z,97.65
2022-12-01T06:45:25.379Z,97.82
2022-12-01T06:46:26.750Z,97.64
2022-12-01T06:47:28.102Z,96.92
2022-12-01T06:48:29.826Z,97.44
2022-12-01T06:49:31.191Z,97.04
2022-12-01T06:50:32.552Z,96.81
2022-12-01T06:51:33.945Z,96.83
2022-12-01T06:52:36.406Z,97.13
2022-12-01T06:53:37.726Z,97.35
2022-12-01T06:54:39.031Z,97.92
2022-12-01T06:55:40.628Z,97.52
2022-12-01T06:56:42.218Z,97.63
2022-12-01T06:57:43.967Z,96.83
2022-12-01T06:58:45.789Z,96.61
2022-12-01T06:59:47.730Z,96.79
2022-12-01T07:00:52.274Z,98.24
2022-12-01T07:01:53.940Z,97.25
2022-12-01T07:02:55.369Z,97.56
2022-12-01T07:03:56.780Z,97.77
2022-12-01T07:04:58.126Z,98.01
2022-12-01T07:06:05.990Z,97.31
2022-12-01T07:07:07.772Z,97.30
2022-12-01T07:08:09.155Z,97.71
2022-12-01T07:09:10.552Z,96.99
2022-12-01T07:10:12.517Z,96.54
2022-12-01T07:11:15.134Z,96.80
2022-12-01T07:12:16.483Z,96.11
2022-12-01T07:13:17.842Z,96.56
2022-12-01T07:14:27.888Z,97.07
2022-12-01T07:15:29.268Z,97.33
2022-12-01T07:16:31.011Z,97.01
2022-12-01T07:17:32.442Z,97.14
2022-12-01T07:18:34.193Z,97.18
2022-12-01T07:19:35.688Z,97.02
2022-12-01T07:20:37.072Z,97.37
2022-12-01T07:21:38.438Z,97.52
2022-12-01T07:22:39.809Z,97.08
2022-12-01T07:23:41.510Z,98.60
2022-12-01T07:24:42.846Z,98.71
2022-12-01T07:25:44.227Z,98.91
2022-12-01T07:26:45.583Z,99.10
2022-12-01T07:27:46.927Z,99.25
2022-12-01T07:28:48.314Z,98.60
2022-12-01T07:29:49.969Z,98.39
2022-12-01T07:30:51.581Z,98.10
2022-12-01T07:31:52.976Z,98.08
2022-12-01T07:32:54.355Z,97.68
2022-12-01T07:33:55.743Z,97.92
2022-12-01T07:34:57.113Z,97.61
2022-12-01T07:35:58.734Z,97.90
2022-12-01T07:37:00.078Z,97.08
2022-12-01T07:38:01.403Z,96.93
2022-12-01T07:39:06.785Z,97.83
2022-12-01T07:40:08.630Z,97.74
2022-12-01T07:41:11.336Z,97.90
2022-12-01T07:42:12.683Z,98.55
2022-12-01T07:43:14.089Z,98.53
2022-12-01T07:44:15.486Z,97.29
2022-12-01T07:45:17.269Z,97.92
2022-12-01T07:46:23.106Z,97.86
2022-12-01T07:47:25.434Z,97.89
2022-12-01T07:48:29.159Z,97.50
2022-12-01T07:49:30.486Z,97.77
2022-12-01T07:50:31.863Z,97.88
2022-12-01T07:51:33.270Z,97.47
2022-12-01T07:52:34.579Z,96.95
2022-12-01T07:53:35.940Z,97.02
2022-12-01T07:54:37.334Z,97.02
2022-12-01T07:55:38.684Z,97.15
2022-12-01T07:56:40.354Z,97.61
2022-12-01T07:57:41.770Z,97.97
2022-12-01T07:58:43.426Z,98.44
2022-12-01T07:59:44.795Z,97.90
2022-12-01T08:00:46.143Z,97.71
2022-12-01T08:01:47.521Z,98.08
2022-12-01T08:02:48.951Z,98.30
2022-12-01T08:03:51.536Z,98.48
2022-12-01T08:04:52.851Z,98.48
2022-12-01T08:05:57.553Z,98.61
2022-12-01T08:06:58.884Z,98.39
2022-12-01T08:08:00.271Z,98.71
2022-12-01T08:09:01.698Z,98.58
2022-12-01T08:10:03.539Z,97.82
2022-12-01T08:11:06.156Z,97.98
2022-12-01T08:12:07.984Z,97.02
2022-12-01T08:13:12.928Z,96.70
2022-12-01T08:14:18.439Z,97.51
2022-12-01T08:15:19.869Z,97.49
2022-12-01T08:16:23.026Z,97.19
2022-12-01T08:17:24.330Z,97.21
2022-12-01T08:18:25.768Z,97.70
2022-12-01T08:19:27.194Z,97.96
2022-12-01T08:20:28.622Z,97.77
2022-12-01T08:21:31.162Z,97.35
2022-12-01T08:22:32.765Z,98.09
2022-12-01T08:23:34.163Z,96.52
2022-12-01T08:24:35.530Z,96.60
2022-12-01T08:25:36.911Z,96.97
2022-12-01T08:26:38.299Z,96.88
2022-12-01T08:27:39.622Z,96.14
2022-12-01T08:28:41.111Z,96.22
2022-12-01T08:29:42.418Z,97.09
2022-12-01T08:30:43.822Z,97.43
2022-12-01T08:31:45.311Z,97.05
2022-12-01T08:32:46.612Z,96.82
2022-12-01T08:33:48.355Z,97.63
2022-12-01T08:34:53.503Z,97.68
2022-12-01T08:35:55.205Z,96.87
2022-12-01T08:36:56.513Z,96.34
2022-12-01T08:37:57.924Z,95.50
2022-12-01T08:38:59.279Z,96.40
2022-12-01T08:40:00.583Z,96.91
2022-12-01T08:41:02.190Z,97.27
2022-12-01T08:42:03.581Z,97.23
2022-12-01T08:43:05.227Z,97.41
2022-12-01T08:44:06.592Z,97.63
2022-12-01T08:45:08.225Z,97.53
2022-12-01T08:46:10.249Z,96.70
2022-12-01T08:47:15.714Z,95.51
2022-12-01T08:48:20.034Z,96.12
2022-12-01T08:49:21.376Z,96.13
2022-12-01T08:50:22.751Z,96.23
2022-12-01T08:51:24.108Z,97.04
2022-12-01T08:52:25.587Z,97.12
2022-12-01T08:53:26.946Z,97.25
2022-12-01T08:54:28.314Z,96.73
2022-12-01T08:55:29.623Z,95.92
2022-12-01T08:56:35.592Z,96.61
2022-12-01T08:57:37.034Z,97.01
2022-12-01T08:58:38.431Z,97.15
2022-12-01T08:59:39.783Z,97.45
2022-12-01T09:00:41.160Z,96.76
2022-12-01T09:01:42.587Z,96.22
2022-12-01T09:02:44.079Z,96.02
2022-12-01T09:03:45.595Z,96.68
2022-12-01T09:04:46.946Z,96.48
2022-12-01T09:05:48.267Z,94.75
2022-12-01T09:06:50.469Z,95.91
2022-12-01T09:07:51.870Z,96.27
2022-12-01T09:08:53.215Z,95.42
2022-12-01T09:09:54.518Z,95.41
2022-12-01T09:10:55.850Z,95.01
2022-12-01T09:11:57.178Z,95.27
2022-12-01T09:12:58.540Z,96.21
2022-12-01T09:13:59.875Z,96.26
2022-12-01T09:15:01.275Z,96.53
2022-12-01T09:16:07.136Z,96.47
2022-12-01T09:17:08.951Z,96.48
2022-12-01T09:18:10.308Z,96.15
2022-12-01T09:19:13.329Z,96.42
2022-12-01T09:20:14.932Z,95.75
2022-12-01T09:21:17.829Z,95.50
2022-12-01T09:22:19.454Z,95.26
2022-12-01T09:23:21.458Z,94.33
2022-12-01T09:24:22.857Z,95.38
2022-12-01T09:25:24.206Z,94.94
2022-12-01T09:26:26.009Z,95.03
2022-12-01T09:27:27.505Z,94.70
2022-12-01T09:28:29.035Z,95.26
2022-12-01T09:29:30.392Z,94.94
2022-12-01T09:30:31.707Z,95.70
2022-12-01T09:31:33.276Z,95.65
2022-12-01T09:32:34.691Z,94.72
2022-12-01T09:33:36.407Z,95.21
2022-12-01T09:34:37.761Z,95.62
2022-12-01T09:35:39.412Z,95.80
2022-12-01T09:36:40.726Z,95.58
2022-12-01T09:37:42.055Z,95.38
2022-12-01T09:38:43.610Z,94.83
2022-12-01T09:39:44.939Z,94.79
2022-12-01T09:40:46.252Z,94.86
2022-12-01T09:41:53.644Z,94.53
2022-12-01T09:42:55.190Z,95.99
2022-12-01T09:44:16.807Z,95.71
2022-12-01T09:45:24.944Z,96.21
2022-12-01T09:46:28.583Z,95.43
2022-12-01T09:47:31.537Z,94.83
2022-12-01T09:48:43.788Z,95.17
2022-12-01T09:49:55.907Z,95.56
2022-12-01T09:50:57.304Z,94.95
2022-12-01T09:51:59.754Z,95.21
2022-12-01T09:53:03.206Z,94.81
2022-12-01T09:54:04.664Z,94.28
2022-12-01T09:55:11.423Z,95.20
2022-12-01T09:56:18.975Z,94.83
2022-12-01T09:57:28.332Z,94.53
2022-12-01T09:58:30.167Z,94.17
2022-12-01T09:59:33.702Z,92.95
2022-12-01T10:00:37.013Z,93.68
2022-12-01T10:01:41.736Z,94.00
2022-12-01T10:02:49.032Z,94.59
2022-12-01T10:03:54.246Z,93.41
2022-12-01T10:04:56.940Z,93.84
2022-12-01T10:07:26.623Z,92.80
2022-12-01T10:08:29.876Z,92.38
2022-12-01T10:09:50.006Z,93.40
2022-12-01T10:10:53.046Z,93.00
2022-12-01T10:11:57.951Z,92.90
2022-12-01T10:12:59.435Z,92.83
2022-12-01T10:14:01.062Z,93.23
2022-12-01T10:15:18.061Z,93.27
2022-12-01T10:16:24.002Z,93.55
2022-12-01T10:17:25.316Z,93.36
2022-12-01T10:18:41.742Z,93.79
2022-12-01T10:19:52.526Z,93.99
2022-12-01T10:21:02.722Z,94.58
2022-12-01T10:22:15.994Z,93.49
2022-12-01T10:23:22.758Z,93.51
2022-12-01T10:24:39.354Z,93.36
2022-12-01T10:25:44.731Z,92.92
2022-12-01T10:26:51.387Z,92.65
2022-12-01T10:28:11.093Z,93.36
2022-12-01T10:29:27.213Z,93.07
2022-12-01T10:30:28.780Z,94.21
2022-12-01T10:31:53.620Z,92.07
2022-12-01T10:32:56.486Z,92.43
2022-12-01T10:34:14.259Z,92.75
2022-12-01T10:35:16.616Z,93.35
2022-12-01T10:36:17.958Z,93.34
2022-12-01T10:37:24.244Z,92.84
2022-12-01T10:38:30.797Z,92.83
2022-12-01T10:39:37.607Z,93.35
2022-12-01T10:40:39.501Z,93.51
2022-12-01T10:41:41.254Z,92.27
2022-12-01T10:42:42.596Z,92.53
2022-12-01T10:43:45.877Z,92.71
2022-12-01T10:44:47.519Z,92.49
2022-12-01T10:45:49.344Z,92.67
2022-12-01T10:46:53.977Z,92.64
2022-12-01T10:48:13.315Z,92.06
2022-12-01T10:49:16.127Z,91.83
2022-12-01T10:50:26.620Z,91.27
2022-12-01T10:51:28.977Z,91.02
2022-12-01T10:52:31.857Z,89.92
2022-12-01T10:53:34.260Z,90.42
2022-12-01T10:54:36.921Z,91.13
2022-12-01T10:55:43.447Z,91.23
2022-12-01T10:56:48.973Z,91.86
2022-12-01T10:57:50.756Z,92.42
2022-12-01T10:58:53.859Z,92.52
2022-12-01T11:00:02.249Z,92.00
2022-12-01T11:01:05.712Z,91.38
2022-12-01T11:02:15.083Z,90.73
2022-12-01T11:03:22.313Z,91.62
2022-12-01T11:04:38.956Z,91.01
2022-12-01T11:05:42.191Z,90.64
2022-12-01T11:06:48.535Z,91.70
2022-12-01T11:07:50.218Z,90.96
2022-12-01T11:08:53.512Z,90.96
2022-12-01T11:10:02.091Z,91.04
2022-12-01T11:11:03.723Z,91.20
2022-12-01T11:12:05.171Z,91.12
2022-12-01T11:13:14.698Z,91.70
2022-12-01T11:14:20.514Z,92.27
2022-12-01T11:15:32.128Z,92.71
2022-12-01T11:16:41.493Z,92.47
2022-12-01T11:17:44.736Z,91.50
2022-12-01T11:18:46.099Z,91.30
2022-12-01T11:19:47.863Z,91.17
2022-12-01T11:21:04.485Z,90.80
2022-12-01T11:22:29.160Z,92.24
2022-12-01T11:23:30.500Z,91.62
2022-12-01T11:24:40.920Z,91.28
2022-12-01T11:25:42.395Z,90.63
2022-12-01T11:26:43.756Z,91.10
2022-12-01T11:27:52.430Z,91.57
2022-12-01T11:29:12.223Z,92.04
2022-12-01T11:30:30.049Z,90.12
2022-12-01T11:31:42.225Z,90.21
2022-12-01T11:32:51.170Z,90.88
2022-12-01T11:33:53.807Z,89.76
2022-12-01T11:34:57.269Z,90.57
2022-12-01T11:35:58.634Z,89.64
2022-12-01T11:37:15.500Z,88.38
2022-12-01T11:38:29.900Z,89.72
2022-12-01T11:39:31.660Z,90.04
2022-12-01T11:40:37.284Z,90.78
2022-12-01T11:41:40.275Z,89.62
2022-12-01T11:42:42.301Z,90.44
2022-12-01T11:43:50.527Z,90.18
2022-12-01T11:45:05.355Z,90.10
2022-12-01T11:46:08.599Z,90.19
2022-12-01T11:47:24.831Z,88.46
2022-12-01T11:48:28.180Z,88.01
2022-12-01T11:49:29.599Z,88.38
2022-12-01T11:50:32.375Z,88.92
2022-12-01T11:51:34.599Z,89.19
2022-12-01T11:52:45.345Z,88.34
2022-12-01T11:53:47.156Z,88.89
2022-12-01T11:55:21.126Z,87.80
2022-12-01T11:56:28.143Z,88.00
2022-12-01T11:57:35.017Z,88.33
2022-12-01T11:58:36.988Z,88.96
2022-12-01T11:59:38.412Z,88.08
2022-12-01T12:01:00.002Z,89.99
2022-12-01T12:02:01.499Z,88.73
2022-12-01T12:03:17.050Z,87.85
2022-12-01T12:04:38.231Z,88.28
2022-12-01T12:05:45.560Z,88.81
2022-12-01T12:06:56.330Z,88.76
2022-12-01T12:08:23.473Z,89.17
2022-12-01T12:09:44.923Z,89.72
2022-12-01T12:11:18.820Z,89.41
2022-12-01T12:12:20.132Z,88.91
2022-12-01T12:13:32.011Z,87.19
2022-12-01T12:14:33.546Z,89.51
2022-12-01T12:15:37.906Z,88.06
2022-12-01T12:16:45.769Z,88.40
2022-12-01T12:17:53.378Z,88.50
2022-12-01T12:19:03.560Z,87.79
2022-12-01T12:20:11.134Z,88.55
2022-12-01T12:21:32.833Z,88.57
2022-12-01T12:22:52.258Z,88.35
2022-12-01T12:23:56.473Z,88.28
2022-12-01T12:24:57.777Z,89.59
2022-12-01T12:26:01.860Z,89.39
2022-12-01T12:27:13.169Z,89.33
2022-12-01T12:28:23.342Z,89.50
2022-12-01T12:29:39.459Z,89.58
2022-12-01T12:30:57.681Z,88.75
2022-12-01T12:32:04.906Z,89.76
2022-12-01T12:33:06.265Z,90.11
2022-12-01T12:34:07.573Z,88.86
2022-12-01T12:35:18.312Z,88.97
2022-12-01T12:36:43.306Z,87.64
2022-12-01T12:37:56.587Z,88.44
2022-12-01T12:38:57.923Z,88.25
2022-12-01T12:40:18.071Z,88.24
2022-12-01T12:41:21.937Z,87.90
2022-12-01T12:42:46.366Z,87.94
2022-12-01T12:44:06.536Z,88.48
2022-12-01T12:45:19.600Z,88.01
2022-12-01T12:46:39.826Z,87.22
2022-12-01T12:47:49.811Z,87.18
2022-12-01T12:49:21.691Z,87.10
2022-12-01T12:50:32.128Z,87.08
2022-12-01T12:51:38.317Z,88.46
2022-12-01T12:52:42.710Z,88.29
2022-12-01T12:53:56.658Z,87.86
2022-12-01T12:55:08.278Z,88.36
2022-12-01T12:56:12.067Z,88.51
2022-12-01T12:57:42.402Z,87.71
2022-12-01T12:58:56.942Z,87.46
2022-12-01T13:00:04.525Z,88.30
2022-12-01T13:01:23.879Z,89.17
2022-12-01T13:02:32.948Z,88.48
2022-12-01T13:03:55.778Z,89.14
2022-12-01T13:05:05.236Z,88.92
2022-12-01T13:06:29.580Z,89.16
2022-12-01T13:07:49.413Z,88.32
2022-12-01T13:08:57.252Z,87.58
2022-12-01T13:10:02.574Z,87.48
2022-12-01T13:11:10.325Z,87.99
2022-12-01T13:12:17.700Z,88.49
2022-12-01T13:13:33.983Z,88.82
2022-12-01T13:14:39.086Z,89.68
2022-12-01T13:15:40.798Z,89.64
2022-12-01T13:16:48.544Z,89.01
2022-12-01T13:17:54.870Z,88.22
2022-12-01T13:19:00.443Z,89.91
2022-12-01T13:20:01.805Z,89.41
2022-12-01T13:21:04.264Z,90.16
2022-12-01T13:22:06.055Z,89.89
2022-12-01T13:23:11.395Z,90.61
2022-12-01T13:24:22.776Z,89.65
2022-12-01T13:25:29.956Z,90.15
2022-12-01T13:26:33.583Z,90.40
2022-12-01T13:27:36.957Z,89.05
2022-12-01T13:28:41.774Z,89.86
2022-12-01T13:29:48.459Z,89.97
2022-12-01T13:31:12.419Z,88.91
2022-12-01T13:32:26.691Z,90.05
2022-12-01T13:33:28.536Z,89.48
2022-12-01T13:34:37.058Z,89.26
2022-12-01T13:35:38.796Z,89.74
2022-12-01T13:36:48.082Z,89.92
2022-12-01T13:37:49.599Z,89.93
2022-12-01T13:39:14.285Z,89.80
2022-12-01T13:40:22.008Z,90.54
2022-12-01T13:41:26.288Z,90.29
2022-12-01T13:42:28.422Z,90.07
2022-12-01T13:43:29.818Z,90.97
2022-12-01T13:44:37.286Z,89.12
2022-12-01T13:45:40.139Z,89.58
2022-12-01T13:46:41.693Z,89.38
2022-12-01T13:47:46.099Z,89.96
2022-12-01T13:48:47.408Z,88.58
2022-12-01T13:49:52.926Z,89.43
2022-12-01T13:51:00.579Z,89.41
2022-12-01T13:52:28.986Z,89.32
2022-12-01T13:53:39.811Z,89.83